M I D A S
Marine Information and Data Acquisition System
Tripno 921 of the Zeeleeuw from 2005-06-24 07:29:11 to 2005-06-24 13:46:21
Back to CruiseResearch ActivitiesStationsMapUnderway DataData graphs

EquipmentUnitsComments
TimeDGPSUTC
LatitudeDGPSDM.mWGS84
LongitudeDGPSDM.mWGS84
SpeedMeteo Stationm/sRelative wind speed
DirectionMeteo StationdegRelative wind direction
TemperatureMeteo Stationdeg CelciusAir temperature
PressureMeteo StationPaAtmospheric pressure
HumidityMeteo Station%Relative humidity
Missing or incorrect values are displayed as -999
Metereological data collected by the RV Zeeleeuw from 2005-06-24 07:30:35 to 2005-06-24 15:58:47
Time Latitude Longitude Speed Direction Temperature Pressure Humidity
2005-06-24 07:31 51°13.618 2°56.045 3.9 204 22.2 101430 64
2005-06-24 07:32 51°13.653 2°55.935 4.8 210 22 101430 64
2005-06-24 07:33 51°13.686 2°55.816 3.3 221 21.7 101430 65
2005-06-24 07:34 51°13.7 2°55.757 1.1 303 21.3 101430 66
2005-06-24 07:35 51°13.709 2°55.745 3 355 21.3 101430 67
2005-06-24 07:36 51°13.775 2°55.689 4.6 22 21.3 101420 67
2005-06-24 07:37 51°13.874 2°55.597 5.8 7 21 101420 68
2005-06-24 07:38 51°13.999 2°55.516 6.5 15 20.8 101420 70
2005-06-24 07:39 51°14.129 2°55.429 6 8 20.6 101420 72
2005-06-24 07:40 51°14.245 2°55.29 4.4 14 20.4 101420 73
2005-06-24 07:41 51°14.335 2°55.126 5.3 15 20.3 101430 75
2005-06-24 07:42 51°14.45 2°54.905 6.7 13 20.2 101430 77
2005-06-24 07:43 51°14.531 2°54.566 6.9 12 20.1 101430 78
2005-06-24 07:44 51°14.475 2°54.204 6.6 12 20 101430 78
2005-06-24 07:45 51°14.363 2°53.863 6.9 6 19.9 101430 79
2005-06-24 07:46 51°14.233 2°53.535 6.7 4 19.9 101440 79
2005-06-24 07:47 51°14.111 2°53.195 6.8 4 19.9 101430 80
2005-06-24 07:48 51°13.981 2°52.855 6.6 7 19.9 101430 80
2005-06-24 07:49 51°13.85 2°52.516 6.2 7 19.9 101420 80
2005-06-24 07:50 51°13.717 2°52.176 6.1 6 19.9 101430 80
2005-06-24 07:51 51°13.586 2°51.834 6.4 8 19.9 101420 80
2005-06-24 07:52 51°13.455 2°51.493 6.1 7 19.9 101420 80
2005-06-24 07:53 51°13.319 2°51.15 6.4 5 19.9 101430 81
2005-06-24 07:54 51°13.184 2°50.807 6.2 4 19.9 101420 81
2005-06-24 07:55 51°13.052 2°50.473 6.2 5 19.9 101420 81
2005-06-24 07:56 51°12.912 2°50.123 5.8 5 19.9 101420 81
2005-06-24 07:57 51°12.779 2°49.788 6.2 6 19.9 101420 82
2005-06-24 07:58 51°12.645 2°49.444 6 5 19.9 101420 82
2005-06-24 07:59 51°12.507 2°49.091 6.2 5 19.9 101420 82
2005-06-24 08:00 51°12.376 2°48.755 5.9 4 19.9 101420 81
2005-06-24 08:01 51°12.248 2°48.405 6.2 8 19.9 101420 81
2005-06-24 08:02 51°12.123 2°48.065 6 9 19.9 101420 81
2005-06-24 08:03 51°12.006 2°47.721 6 9 20 101420 81
2005-06-24 08:04 51°11.886 2°47.362 5.7 6 20 101420 81
2005-06-24 08:05 51°11.769 2°47.011 5.9 6 20 101410 81
2005-06-24 08:06 51°11.677 2°46.653 6.1 6 20 101420 82
2005-06-24 08:07 51°11.594 2°46.28 5.9 3 19.9 101420 82
2005-06-24 08:08 51°11.51 2°45.897 6.2 1 19.9 101420 81
2005-06-24 08:09 51°11.44 2°45.52 6.1 357 19.9 101420 81
2005-06-24 08:10 51°11.37 2°45.147 5.9 359 20 101420 82
2005-06-24 08:11 51°11.298 2°44.764 6.1 1 20.1 101420 82
2005-06-24 08:12 51°11.227 2°44.378 5.8 1 20.1 101420 82
2005-06-24 08:13 51°11.156 2°43.998 5.9 360 20.1 101420 82
2005-06-24 08:14 51°11.085 2°43.62 5.7 359 20.1 101410 82
2005-06-24 08:15 51°11.014 2°43.237 5.8 358 20.2 101410 82
2005-06-24 08:16 51°10.947 2°42.861 5.7 1 20.2 101410 82
2005-06-24 08:17 51°10.884 2°42.473 5.7 3 20.2 101410 81
2005-06-24 08:18 51°10.824 2°42.101 5.7 3 20.3 101410 81
2005-06-24 08:19 51°10.763 2°41.719 5.8 5 20.3 101410 81
2005-06-24 08:20 51°10.701 2°41.328 5.6 5 20.3 101410 81
2005-06-24 08:21 51°10.64 2°40.948 5.8 7 20.2 101410 80
2005-06-24 08:22 51°10.581 2°40.573 5.5 9 20 101410 81
2005-06-24 08:23 51°10.521 2°40.195 5.2 13 20 101410 81
2005-06-24 08:24 51°10.461 2°39.813 5.1 12 20 101410 81
2005-06-24 08:25 51°10.402 2°39.438 5 8 19.9 101410 81
2005-06-24 08:26 51°10.344 2°39.057 4.7 9 19.9 101400 81
2005-06-24 08:27 51°10.291 2°38.677 4.8 9 19.9 101400 81
2005-06-24 08:28 51°10.241 2°38.306 4.9 9 19.8 101400 81
2005-06-24 08:29 51°10.188 2°37.914 5 7 19.8 101400 81
2005-06-24 08:30 51°10.135 2°37.531 4.9 3 19.8 101410 81
2005-06-24 08:31 51°10.082 2°37.158 4.8 -999 19.8 101410 82
2005-06-24 08:32 51°10.029 2°36.775 4.9 3 19.9 101410 82
2005-06-24 08:33 51°10 2°36.382 4.8 11 19.9 101410 81
2005-06-24 08:34 51°10.022 2°36.003 4.7 12 19.9 101410 80
2005-06-24 08:35 51°10.11 2°35.67 5.7 25 19.9 101410 80
2005-06-24 08:36 51°10.29 2°35.51 7.2 26 19.8 101410 80
2005-06-24 08:37 51°10.469 2°35.603 8.4 22 19.7 101400 80
2005-06-24 08:38 51°10.624 2°35.809 8.5 21 19.7 101400 81
2005-06-24 08:39 51°10.77 2°36.005 8.7 22 19.6 101400 81
2005-06-24 08:40 51°10.924 2°36.217 8.8 23 19.6 101400 82
2005-06-24 08:41 51°11.068 2°36.416 8.8 21 19.6 101400 82
2005-06-24 08:42 51°11.221 2°36.627 8.4 24 19.5 101390 83
2005-06-24 08:43 51°11.364 2°36.823 8.7 25 19.5 101390 83
2005-06-24 08:44 51°11.519 2°37.017 8.7 25 19.5 101390 83
2005-06-24 08:45 51°11.679 2°37.194 8.8 25 19.4 101390 84
2005-06-24 08:46 51°11.844 2°37.367 9.2 26 19.4 101390 84
2005-06-24 08:47 51°12.006 2°37.537 9 26 19.4 101380 84
2005-06-24 08:48 51°12.173 2°37.714 8.7 27 19.4 101380 84
2005-06-24 08:49 51°12.336 2°37.886 8.9 25 19.4 101380 85
2005-06-24 08:50 51°12.498 2°38.058 9 26 19.3 101380 85
2005-06-24 08:51 51°12.657 2°38.222 9.2 26 19.3 101380 85
2005-06-24 08:52 51°12.825 2°38.394 9 26 19.3 101370 85
2005-06-24 08:53 51°12.987 2°38.553 8.6 28 19.3 101370 85
2005-06-24 08:54 51°13.172 2°38.657 8.6 31 19.3 101380 85
2005-06-24 08:55 51°13.37 2°38.725 8.2 31 19.3 101380 86
2005-06-24 08:56 51°13.565 2°38.794 8.1 31 19.3 101380 86
2005-06-24 08:57 51°13.759 2°38.867 8.5 31 19.2 101380 87
2005-06-24 08:58 51°13.954 2°38.942 8.2 33 19.3 101380 87
2005-06-24 08:59 51°14.154 2°38.892 6.6 35 19.3 101390 87
2005-06-24 09:00 51°14.347 2°38.749 6.4 34 19.2 101390 87
2005-06-24 09:01 51°14.49 2°38.492 3.9 21 19.1 101390 87
2005-06-24 09:02 51°14.441 2°38.127 5.2 349 19.2 101390 87
2005-06-24 09:03 51°14.322 2°37.774 5.5 346 19.3 101400 87
2005-06-24 09:04 51°14.204 2°37.417 5.5 349 19.5 101400 87
2005-06-24 09:05 51°14.087 2°37.056 5.8 351 19.6 101400 86
2005-06-24 09:06 51°13.975 2°36.707 5.7 352 19.7 101400 86
2005-06-24 09:07 51°13.86 2°36.342 5.6 351 19.7 101400 85
2005-06-24 09:08 51°13.749 2°35.984 5.4 348 19.8 101400 85
2005-06-24 09:09 51°13.637 2°35.626 5.4 347 19.9 101390 84
2005-06-24 09:10 51°13.524 2°35.278 5.6 346 19.9 101390 84
2005-06-24 09:11 51°13.408 2°34.92 5.5 347 20 101390 83
2005-06-24 09:12 51°13.295 2°34.568 5.4 350 20 101390 83
2005-06-24 09:13 51°13.182 2°34.227 5.2 351 20 101390 82
2005-06-24 09:14 51°13.064 2°33.869 5.3 352 20 101390 82
2005-06-24 09:15 51°12.948 2°33.523 5.1 352 20 101390 82
2005-06-24 09:16 51°12.832 2°33.177 5 353 19.9 101390 82
2005-06-24 09:17 51°12.714 2°32.832 5.1 353 19.9 101390 81
2005-06-24 09:18 51°12.596 2°32.485 5.1 353 19.8 101390 81
2005-06-24 09:19 51°12.477 2°32.135 5.2 354 19.8 101390 81
2005-06-24 09:20 51°12.357 2°31.783 5.3 351 19.9 101390 81
2005-06-24 09:21 51°12.237 2°31.431 5.2 351 19.9 101400 81
2005-06-24 09:22 51°12.118 2°31.074 4.9 350 19.9 101390 81
2005-06-24 09:23 51°12.005 2°30.711 4.9 348 19.9 101390 81
2005-06-24 09:24 51°11.895 2°30.348 4.8 349 20 101390 81
2005-06-24 09:25 51°11.792 2°29.978 4.5 354 20 101390 80
2005-06-24 09:26 51°11.702 2°29.598 4.6 354 20.1 101390 80
2005-06-24 09:27 51°11.614 2°29.215 4.4 355 20.1 101380 80
2005-06-24 09:28 51°11.528 2°28.827 4.3 359 20.1 101380 80
2005-06-24 09:29 51°11.46 2°28.435 4.1 1 20.1 101390 79
2005-06-24 09:30 51°11.396 2°28.039 4.3 6 20 101380 79
2005-06-24 09:31 51°11.335 2°27.65 4.2 7 20 101380 79
2005-06-24 09:32 51°11.274 2°27.26 3.9 7 19.9 101380 80
2005-06-24 09:33 51°11.214 2°26.874 3.8 10 19.8 101380 80
2005-06-24 09:34 51°11.155 2°26.494 3.4 7 19.6 101380 80
2005-06-24 09:35 51°11.098 2°26.118 3.2 15 19.6 101380 81
2005-06-24 09:36 51°11.097 2°25.739 3.6 37 19.5 101370 81
2005-06-24 09:37 51°11.184 2°25.41 6.3 48 19.3 101370 81
2005-06-24 09:38 51°11.374 2°25.287 8.7 35 19.1 101370 82
2005-06-24 09:39 51°11.568 2°25.361 10.1 27 19 101360 83
2005-06-24 09:40 51°11.732 2°25.526 10.3 26 19 101360 84
2005-06-24 09:41 51°11.891 2°25.705 10.2 26 19.1 101360 84
2005-06-24 09:42 51°12.047 2°25.882 10.1 26 19.1 101360 84
2005-06-24 09:43 51°12.203 2°26.065 10.4 26 19.2 101360 83
2005-06-24 09:44 51°12.357 2°26.243 10 27 19.1 101360 83
2005-06-24 09:45 51°12.512 2°26.423 10 28 19.1 101360 84
2005-06-24 09:46 51°12.667 2°26.604 10 29 19 101360 84
2005-06-24 09:47 51°12.819 2°26.788 9.8 27 19 101360 84
2005-06-24 09:48 51°12.972 2°26.973 9.7 27 19 101360 85
2005-06-24 09:49 51°13.124 2°27.159 9.9 27 18.9 101360 86
2005-06-24 09:50 51°13.28 2°27.348 9.8 25 18.9 101360 86
2005-06-24 09:51 51°13.43 2°27.532 10.1 25 18.9 101360 87
2005-06-24 09:52 51°13.578 2°27.726 9.7 24 18.9 101360 87
2005-06-24 09:53 51°13.726 2°27.919 9.9 24 18.8 101360 87
2005-06-24 09:54 51°13.872 2°28.113 9.8 25 18.8 101360 87
2005-06-24 09:55 51°14.017 2°28.305 9.7 24 18.8 101360 87
2005-06-24 09:56 51°14.167 2°28.501 9.5 24 18.8 101370 87
2005-06-24 09:57 51°14.316 2°28.695 9.8 23 18.8 101370 87
2005-06-24 09:58 51°14.463 2°28.883 9.4 22 18.8 101370 87
2005-06-24 09:59 51°14.618 2°29.083 9.4 22 18.8 101370 87
2005-06-24 10:00 51°14.767 2°29.277 9.5 22 18.8 101370 87
2005-06-24 10:01 51°14.916 2°29.474 9.2 23 18.9 101370 87
2005-06-24 10:02 51°15.065 2°29.668 9.1 24 18.9 101370 87
2005-06-24 10:03 51°15.216 2°29.858 8.9 23 19 101370 87
2005-06-24 10:04 51°15.37 2°30.05 9.1 22 19 101380 87
2005-06-24 10:05 51°15.522 2°30.24 8.9 22 19 101380 87
2005-06-24 10:06 51°15.677 2°30.432 8.7 21 19 101380 87
2005-06-24 10:07 51°15.831 2°30.62 8.7 23 19.1 101380 87
2005-06-24 10:08 51°15.986 2°30.81 9 23 19 101380 87
2005-06-24 10:09 51°16.142 2°31 9 22 19 101380 87
2005-06-24 10:10 51°16.293 2°31.186 9 22 19 101380 87
2005-06-24 10:11 51°16.453 2°31.386 9 23 19 101380 87
2005-06-24 10:12 51°16.604 2°31.578 9.1 22 19 101380 87
2005-06-24 10:13 51°16.758 2°31.772 9.2 25 18.9 101370 86
2005-06-24 10:14 51°16.908 2°31.97 9.2 26 18.9 101370 86
2005-06-24 10:15 51°17.057 2°32.174 9.4 26 18.9 101370 86
2005-06-24 10:16 51°17.202 2°32.374 9.3 28 19 101370 86
2005-06-24 10:17 51°17.347 2°32.569 9.3 27 19 101360 86
2005-06-24 10:18 51°17.492 2°32.765 9.2 26 19 101360 86
2005-06-24 10:19 51°17.64 2°32.965 9.3 27 19 101360 86
2005-06-24 10:20 51°17.782 2°33.168 9.7 24 19 101360 86
2005-06-24 10:21 51°17.91 2°33.396 9.7 24 19 101360 86
2005-06-24 10:22 51°18.042 2°33.624 9.7 24 19 101360 86
2005-06-24 10:23 51°18.172 2°33.853 10 24 19 101360 86
2005-06-24 10:24 51°18.302 2°34.08 10 23 19.1 101360 86
2005-06-24 10:25 51°18.431 2°34.308 10 23 19 101350 86
2005-06-24 10:26 51°18.561 2°34.538 9.8 24 19.1 101360 86
2005-06-24 10:27 51°18.692 2°34.773 9.8 22 19.1 101350 86
2005-06-24 10:28 51°18.817 2°35.008 9.8 21 19.1 101360 85
2005-06-24 10:29 51°18.938 2°35.251 10 21 19.2 101350 85
2005-06-24 10:30 51°19.059 2°35.497 9.6 21 19.2 101350 85
2005-06-24 10:31 51°19.18 2°35.737 9.7 21 19.3 101350 84
2005-06-24 10:32 51°19.301 2°35.976 9.7 21 19.4 101360 84
2005-06-24 10:33 51°19.422 2°36.208 9.5 20 19.4 101360 84
2005-06-24 10:34 51°19.54 2°36.441 9.4 19 19.5 101350 83
2005-06-24 10:35 51°19.659 2°36.679 9.6 19 19.6 101350 83
2005-06-24 10:36 51°19.794 2°36.895 9.3 20 19.7 101350 84
2005-06-24 10:37 51°19.94 2°37.087 9.2 23 19.8 101350 83
2005-06-24 10:38 51°20.104 2°37.253 9 22 19.8 101350 83
2005-06-24 10:39 51°20.266 2°37.413 9 22 19.8 101350 83
2005-06-24 10:40 51°20.428 2°37.581 8.7 23 19.8 101350 82
2005-06-24 10:41 51°20.589 2°37.744 9 22 19.7 101350 82
2005-06-24 10:42 51°20.762 2°37.87 8.2 26 19.7 101350 82
2005-06-24 10:43 51°20.96 2°37.908 7.9 27 19.6 101350 82
2005-06-24 10:44 51°21.162 2°37.934 7.8 27 19.6 101360 82
2005-06-24 10:45 51°21.365 2°37.94 7.5 25 19.6 101360 82
2005-06-24 10:46 51°21.567 2°37.947 7.8 26 19.5 101360 81
2005-06-24 10:47 51°21.772 2°37.955 8 27 19.5 101360 81
2005-06-24 10:48 51°21.977 2°37.965 8.4 27 19.5 101350 82
2005-06-24 10:49 51°22.182 2°37.977 8.2 27 19.5 101350 82
2005-06-24 10:50 51°22.388 2°37.992 8 29 19.4 101350 81
2005-06-24 10:51 51°22.59 2°38.01 8.2 29 19.3 101340 81
2005-06-24 10:52 51°22.787 2°38.048 9 25 19.3 101340 80
2005-06-24 10:53 51°22.963 2°38.19 9.1 23 19.3 101340 78
2005-06-24 10:54 51°23.124 2°38.364 9.8 20 19.3 101340 78
2005-06-24 10:55 51°23.262 2°38.584 9.6 20 19.4 101340 77
2005-06-24 10:56 51°23.4 2°38.812 9.6 19 19.4 101340 77
2005-06-24 10:57 51°23.535 2°39.037 9.7 19 19.5 101340 77
2005-06-24 10:58 51°23.673 2°39.266 9.5 21 19.5 101340 77
2005-06-24 10:59 51°23.811 2°39.498 9.2 20 19.5 101340 77
2005-06-24 11:00 51°23.95 2°39.733 9.2 20 19.6 101340 77
2005-06-24 11:01 51°24.085 2°39.962 9.2 20 19.6 101340 77
2005-06-24 11:02 51°24.223 2°40.194 9 19 19.5 101340 78
2005-06-24 11:03 51°24.357 2°40.422 8.9 19 19.4 101340 79
2005-06-24 11:04 51°24.491 2°40.653 8.9 18 19.4 101340 80
2005-06-24 11:05 51°24.624 2°40.878 9.1 19 19.4 101340 81
2005-06-24 11:06 51°24.763 2°41.116 8.9 18 19.4 101340 81
2005-06-24 11:07 51°24.897 2°41.347 8.6 20 19.4 101340 82
2005-06-24 11:08 51°25.033 2°41.572 8.4 17 19.3 101340 83
2005-06-24 11:09 51°25.15 2°41.806 8.8 15 19.3 101340 83
2005-06-24 11:10 51°25.267 2°42.067 9.3 15 19.3 101340 83
2005-06-24 11:11 51°25.377 2°42.31 9.3 16 19.2 101340 82
2005-06-24 11:12 51°25.494 2°42.569 9.1 18 19.2 101340 82
2005-06-24 11:13 51°25.607 2°42.819 9.1 17 19.1 101340 81
2005-06-24 11:14 51°25.722 2°43.073 4.4 15 19.1 101340 81
2005-06-24 11:15 51°25.837 2°43.321 8.8 14 19.1 101340 81
2005-06-24 11:16 51°25.953 2°43.569 9 13 19.2 101350 81
2005-06-24 11:17 51°26.069 2°43.816 9.4 11 19.2 101350 80
2005-06-24 11:18 51°26.186 2°44.061 9.1 13 19.3 101340 80
2005-06-24 11:19 51°26.305 2°44.305 8.9 12 19.3 101340 80
2005-06-24 11:20 51°26.423 2°44.549 8.7 10 19.4 101340 81
2005-06-24 11:21 51°26.542 2°44.794 8.7 8 19.4 101340 81
2005-06-24 11:22 51°26.621 2°45.069 8.9 7 19.4 101340 81
2005-06-24 11:23 51°26.711 2°45.342 8.9 10 19.5 101340 82
2005-06-24 11:24 51°26.804 2°45.615 8.6 8 19.6 101340 82
2005-06-24 11:25 51°26.898 2°45.885 9.1 6 19.6 101340 83
2005-06-24 11:26 51°26.977 2°46.172 9.2 9 19.6 101330 83
2005-06-24 11:27 51°27.054 2°46.458 9.1 8 19.6 101330 84
2005-06-24 11:28 51°27.13 2°46.741 8.9 7 19.7 101340 85
2005-06-24 11:29 51°27.206 2°47.027 9.2 6 19.7 101330 85
2005-06-24 11:30 51°27.285 2°47.316 9.2 7 19.7 101330 84
2005-06-24 11:31 51°27.362 2°47.603 9.1 9 19.8 101330 83
2005-06-24 11:32 51°27.441 2°47.889 9.3 8 19.8 101330 81
2005-06-24 11:33 51°27.517 2°48.174 9.3 10 20 101330 80
2005-06-24 11:34 51°27.594 2°48.462 9 10 20.1 101330 79
2005-06-24 11:35 51°27.673 2°48.75 8.9 7 20.2 101330 80
2005-06-24 11:36 51°27.752 2°49.038 9 5 20.2 101320 78
2005-06-24 11:37 51°27.83 2°49.327 9.1 4 20.2 101320 75
2005-06-24 11:38 51°27.909 2°49.617 9 4 20.2 101320 74
2005-06-24 11:39 51°27.987 2°49.908 9.5 1 20.2 101320 73
2005-06-24 11:40 51°28.068 2°50.199 8.9 3 20.3 101320 72
2005-06-24 11:41 51°28.145 2°50.491 9.1 3 20.3 101310 71
2005-06-24 11:42 51°28.226 2°50.787 8.9 4 20.3 101310 70
2005-06-24 11:43 51°28.307 2°51.081 8.8 3 20.4 101320 71
2005-06-24 11:44 51°28.368 2°51.38 8.9 357 20.4 101310 71
2005-06-24 11:45 51°28.294 2°51.675 7.8 350 20.5 101310 71
2005-06-24 11:46 51°28.131 2°51.898 7.3 348 20.6 101310 71
2005-06-24 11:47 51°27.909 2°51.958 6.3 345 20.7 101320 71
2005-06-24 11:48 51°27.684 2°51.861 5 350 20.8 101320 71
2005-06-24 11:49 51°27.532 2°51.575 4.6 5 20.9 101320 71
2005-06-24 11:50 51°27.405 2°51.248 4.6 1 20.9 101320 71
2005-06-24 11:51 51°27.282 2°50.914 4.5 3 20.9 101310 71
2005-06-24 11:52 51°27.169 2°50.58 4.2 4 20.9 101310 71
2005-06-24 11:53 51°27.059 2°50.238 4.2 2 21 101310 71
2005-06-24 11:54 51°26.954 2°49.911 4.3 359 21 101310 71
2005-06-24 11:55 51°26.842 2°49.561 4.2 357 21 101310 71
2005-06-24 11:56 51°26.735 2°49.226 4.2 356 21 101310 71
2005-06-24 11:57 51°26.628 2°48.884 4 354 21 101310 71
2005-06-24 11:58 51°26.519 2°48.547 4 355 20.9 101310 70
2005-06-24 11:59 51°26.413 2°48.209 4.1 351 20.9 101310 70
2005-06-24 12:00 51°26.306 2°47.87 4 352 21 101310 70
2005-06-24 12:01 51°26.199 2°47.533 3.8 350 21 101310 70
2005-06-24 12:02 51°26.093 2°47.195 4 350 20.9 101310 70
2005-06-24 12:03 51°25.987 2°46.861 3.8 348 20.9 101310 70
2005-06-24 12:04 51°25.882 2°46.526 3.7 350 20.9 101310 70
2005-06-24 12:05 51°25.771 2°46.197 4 342 20.8 101310 70
2005-06-24 12:06 51°25.624 2°45.906 4.8 338 20.8 101300 70
2005-06-24 12:07 51°25.464 2°45.635 5.1 336 20.8 101300 70
2005-06-24 12:08 51°25.284 2°45.402 5.8 335 20.6 101300 71
2005-06-24 12:09 51°25.067 2°45.326 8.2 337 20.6 101300 72
2005-06-24 12:10 51°24.845 2°45.368 8.8 341 20.5 101290 74
2005-06-24 12:11 51°24.648 2°45.545 8.9 343 20.4 101290 74
2005-06-24 12:12 51°24.472 2°45.768 8.9 342 20.4 101290 76
2005-06-24 12:13 51°24.331 2°46.046 9.4 350 20.5 101290 77
2005-06-24 12:14 51°24.29 2°46.384 10.2 353 20.6 101290 78
2005-06-24 12:15 51°24.256 2°46.725 10.8 352 20.6 101280 78
2005-06-24 12:16 51°24.225 2°47.074 10.5 352 20.6 101280 78
2005-06-24 12:17 51°24.2 2°47.419 10.8 354 20.6 101280 77
2005-06-24 12:18 51°24.186 2°47.765 10.6 356 20.6 101280 76
2005-06-24 12:19 51°24.176 2°48.112 10.3 354 20.6 101280 76
2005-06-24 12:20 51°24.163 2°48.459 10.3 353 20.6 101280 76
2005-06-24 12:21 51°24.149 2°48.802 10.5 354 20.7 101280 76
2005-06-24 12:22 51°24.134 2°49.147 10.2 353 20.6 101280 76
2005-06-24 12:23 51°24.12 2°49.493 9.9 352 20.6 101280 76
2005-06-24 12:24 51°24.097 2°49.84 9.4 349 20.5 101280 77
2005-06-24 12:25 51°24.018 2°50.166 10 347 20.4 101280 76
2005-06-24 12:26 51°23.924 2°50.485 9.4 342 20.4 101280 76
2005-06-24 12:27 51°23.749 2°50.639 4.1 329 20.3 101280 75
2005-06-24 12:28 51°23.574 2°50.437 3.3 353 20.3 101290 75
2005-06-24 12:29 51°23.408 2°50.2 2.8 359 20.3 101290 75
2005-06-24 12:30 51°23.238 2°49.968 2.8 348 20.3 101290 74
2005-06-24 12:31 51°23.067 2°49.75 2.3 351 20.4 101290 74
2005-06-24 12:32 51°22.883 2°49.56 3 330 20.4 101280 74
2005-06-24 12:33 51°22.681 2°49.419 3.2 327 20.4 101280 73
2005-06-24 12:34 51°22.479 2°49.283 3.2 327 20.3 101280 73
2005-06-24 12:35 51°22.279 2°49.149 2.9 327 20.3 101270 73
2005-06-24 12:36 51°22.081 2°49.015 3 325 20.3 101270 73
2005-06-24 12:37 51°21.885 2°48.885 2.8 324 20.2 101270 73
2005-06-24 12:38 51°21.694 2°48.753 2.5 331 20.2 101270 73
2005-06-24 12:39 51°21.506 2°48.614 2.7 328 20.2 101270 73
2005-06-24 12:40 51°21.316 2°48.482 2.7 334 20.2 101270 73
2005-06-24 12:41 51°21.122 2°48.345 2.8 334 20.3 101270 73
2005-06-24 12:42 51°20.931 2°48.204 2.5 339 20.3 101260 73
2005-06-24 12:43 51°20.747 2°48.056 2.4 356 20.4 101260 73
2005-06-24 12:44 51°20.562 2°47.904 2.1 340 20.5 101260 73
2005-06-24 12:45 51°20.381 2°47.754 2.2 348 20.6 101260 73
2005-06-24 12:46 51°20.197 2°47.603 2.4 342 20.7 101260 72
2005-06-24 12:47 51°20.015 2°47.453 2.7 324 20.7 101260 72
2005-06-24 12:48 51°19.832 2°47.305 2.3 329 20.8 101260 71
2005-06-24 12:49 51°19.649 2°47.156 2.3 342 21 101250 71
2005-06-24 12:50 51°19.468 2°47.008 2.1 337 21 101260 71
2005-06-24 12:51 51°19.287 2°46.858 1.7 341 21.2 101250 71
2005-06-24 12:52 51°19.114 2°46.683 1.6 350 21.3 101250 70
2005-06-24 12:53 51°18.943 2°46.508 1.9 357 21.4 101250 70
2005-06-24 12:54 51°18.772 2°46.336 1.8 7 21.5 101250 70
2005-06-24 12:55 51°18.598 2°46.163 1.8 2 21.6 101250 69
2005-06-24 12:56 51°18.426 2°45.992 1.4 350 21.7 101240 69
2005-06-24 12:57 51°18.252 2°45.819 2.2 355 21.7 101240 69
2005-06-24 12:58 51°18.081 2°45.649 2 352 21.7 101240 69
2005-06-24 12:59 51°17.908 2°45.479 2.1 341 21.7 101240 69
2005-06-24 13:00 51°17.735 2°45.309 1.8 355 21.8 101240 69
2005-06-24 13:01 51°17.561 2°45.141 2 339 21.8 101240 69
2005-06-24 13:02 51°17.389 2°44.971 2.1 347 21.8 101230 69
2005-06-24 13:03 51°17.211 2°44.816 2.3 336 21.9 101230 69
2005-06-24 13:04 51°17.03 2°44.669 2 331 21.9 101230 68
2005-06-24 13:05 51°16.844 2°44.543 2.6 327 21.9 101230 68
2005-06-24 13:06 51°16.649 2°44.439 2.6 325 21.8 101230 68
2005-06-24 13:07 51°16.45 2°44.378 3.6 317 21.8 101230 69
2005-06-24 13:08 51°16.239 2°44.355 3.6 314 21.7 101220 69
2005-06-24 13:09 51°16.035 2°44.363 5.8 317 21.6 101220 69
2005-06-24 13:10 51°15.865 2°44.561 9.4 325 21.5 101210 70
2005-06-24 13:11 51°15.77 2°44.895 10.7 329 21.3 101200 70
2005-06-24 13:12 51°15.711 2°45.258 11.1 330 21.1 101200 71
2005-06-24 13:13 51°15.66 2°45.627 10.5 334 20.9 101200 71
2005-06-24 13:14 51°15.624 2°46.006 10.7 336 20.8 101200 73
2005-06-24 13:15 51°15.596 2°46.389 11.2 337 20.7 101200 73
2005-06-24 13:16 51°15.565 2°46.777 10.8 336 20.7 101200 73
2005-06-24 13:17 51°15.533 2°47.158 11.2 332 20.6 101200 73
2005-06-24 13:18 51°15.498 2°47.533 10.4 332 20.6 101200 74
2005-06-24 13:19 51°15.464 2°47.912 10.6 336 20.5 101200 75
2005-06-24 13:20 51°15.433 2°48.281 10.4 332 20.5 101200 75
2005-06-24 13:21 51°15.401 2°48.646 10 331 20.5 101200 76
2005-06-24 13:22 51°15.367 2°49.014 9.3 333 20.4 101200 77
2005-06-24 13:23 51°15.335 2°49.385 9 333 20.4 101200 77
2005-06-24 13:24 51°15.305 2°49.757 10.1 330 20.4 101190 77
2005-06-24 13:25 51°15.273 2°50.128 9.1 328 20.4 101190 77
2005-06-24 13:26 51°15.217 2°50.49 9 330 20.5 101200 78
2005-06-24 13:27 51°15.158 2°50.854 9.6 326 20.5 101190 78
2005-06-24 13:28 51°15.099 2°51.213 9.9 326 20.5 101190 78
2005-06-24 13:29 51°15.041 2°51.575 10.3 328 20.5 101190 78
2005-06-24 13:30 51°14.98 2°51.936 10.7 328 20.6 101190 78
2005-06-24 13:31 51°14.916 2°52.307 9.8 331 20.6 101190 77
2005-06-24 13:32 51°14.849 2°52.675 8.4 326 20.7 101200 78
2005-06-24 13:33 51°14.781 2°53.038 9 321 20.7 101200 78
2005-06-24 13:34 51°14.714 2°53.399 8 325 20.7 101200 77
2005-06-24 13:35 51°14.646 2°53.732 7.5 317 20.8 101190 77
2005-06-24 13:36 51°14.598 2°54.03 7.5 317 20.8 101200 77
2005-06-24 13:37 51°14.531 2°54.348 7.9 322 20.9 101190 77
2005-06-24 13:38 51°14.456 2°54.674 7.6 318 20.9 101190 76
2005-06-24 13:39 51°14.382 2°54.979 6.7 325 20.9 101190 76
2005-06-24 13:40 51°14.287 2°55.213 4.1 336 20.9 101210 76
2005-06-24 13:41 51°14.173 2°55.381 3.1 351 21.1 101210 76
2005-06-24 13:42 51°14.049 2°55.475 1.2 343 21.2 101210 76
2005-06-24 13:43 51°13.937 2°55.554 1.9 302 21.3 101210 76
2005-06-24 13:44 51°13.83 2°55.634 1.3 294 21.5 101210 75
2005-06-24 13:45 51°13.741 2°55.739 1.5 299 21.7 101200 74
2005-06-24 13:46 51°13.683 2°55.842 2.3 309 21.9 101200 71
2005-06-24 13:47 51°13.645 2°55.937 3.4 311 22.3 101200 68
2005-06-24 13:48 51°13.616 2°56.019 5.1 276 22.7 101190 66
2005-06-24 13:49 51°13.603 2°56.083 4.4 274 23.1 101190 63
2005-06-24 13:50 51°13.598 2°56.108 2.5 257 23.4 101190 61
2005-06-24 13:51 51°13.599 2°56.109 2.2 232 23.8 101190 59
2005-06-24 13:52 51°13.599 2°56.107 3.1 232 24.1 101190 58
2005-06-24 13:53 51°13.6 2°56.108 2.4 222 24.3 101190 57
2005-06-24 13:54 51°13.601 2°56.108 2 254 24.4 101190 60
2005-06-24 13:55 51°13.603 2°56.107 3.4 239 24.5 101190 57
2005-06-24 13:56 51°13.601 2°56.107 4 235 24.5 101190 57
2005-06-24 13:57 51°13.6 2°56.107 2.7 241 24.5 -999 55
2005-06-24 13:58 51°13.601 2°56.106 4 237 24.6 101200 55
2005-06-24 13:59 51°13.601 2°56.108 4.1 238 24.7 101200 54
2005-06-24 14:00 51°13.599 2°56.107 2.6 229 24.6 101200 53
2005-06-24 14:01 51°13.601 2°56.108 2.7 244 24.5 101200 54
2005-06-24 14:02 51°13.599 2°56.108 3 245 24.5 101200 53
2005-06-24 14:03 51°13.599 2°56.108 3.2 253 24.5 101200 54
2005-06-24 14:04 51°13.599 2°56.108 4 249 24.6 101190 52
2005-06-24 14:05 51°13.599 2°56.108 3.2 227 24.5 101200 52
2005-06-24 14:06 51°13.6 2°56.109 2.8 255 24.6 101190 52
2005-06-24 14:07 51°13.6 2°56.108 3.5 233 24.6 101200 51
2005-06-24 14:08 51°13.598 2°56.108 1.9 240 24.7 101200 52
2005-06-24 14:09 51°13.597 2°56.108 2.6 260 24.8 101200 52
2005-06-24 14:10 51°13.597 2°56.107 2.1 255 24.9 101200 51
2005-06-24 14:11 51°13.598 2°56.107 2 246 24.9 101190 51
2005-06-24 14:12 51°13.598 2°56.108 3 246 25 101200 50
2005-06-24 14:13 51°13.597 2°56.108 2.9 237 25 101190 51
2005-06-24 14:14 51°13.598 2°56.107 3.9 233 25 101190 52
2005-06-24 14:15 51°13.599 2°56.108 3 234 25 101190 51
2005-06-24 14:16 51°13.6 2°56.108 2.8 214 24.9 101190 50
2005-06-24 14:17 51°13.599 2°56.108 2.9 244 25 101190 51
2005-06-24 14:18 51°13.599 2°56.108 4 228 25.1 101190 51
2005-06-24 14:19 51°13.599 2°56.109 2.9 235 25 101190 51
2005-06-24 14:20 51°13.6 2°56.109 2.4 252 25 101190 51
2005-06-24 14:21 51°13.599 2°56.109 1.9 262 25.1 101190 51
2005-06-24 14:22 51°13.599 2°56.109 1.8 256 25.2 101190 51
2005-06-24 14:23 51°13.598 2°56.109 1.7 226 25.4 101190 50
2005-06-24 14:24 51°13.599 2°56.109 3.5 226 25.4 101180 49
2005-06-24 14:25 51°13.598 2°56.109 2.8 281 25.6 101180 48
2005-06-24 14:26 51°13.598 2°56.109 2 247 25.8 101180 46
2005-06-24 14:27 51°13.598 2°56.108 1.9 260 25.9 101180 46
2005-06-24 14:28 51°13.598 2°56.108 4.1 264 25.8 101180 44
2005-06-24 14:29 51°13.599 2°56.109 3 252 25.6 101180 44
2005-06-24 14:30 51°13.6 2°56.109 2.1 254 25.5 101180 45
2005-06-24 14:31 51°13.6 2°56.109 3.1 227 25.4 101180 46
2005-06-24 14:32 51°13.6 2°56.109 3.3 250 25.5 101180 45
2005-06-24 14:33 51°13.599 2°56.108 2.2 254 25.5 101180 46
2005-06-24 14:34 51°13.599 2°56.108 3.9 254 25.5 101180 46
2005-06-24 14:35 51°13.599 2°56.108 4.1 255 25.6 101180 44
2005-06-24 14:36 51°13.599 2°56.108 2.9 272 25.5 101180 46
2005-06-24 14:37 51°13.599 2°56.108 2.8 244 25.7 101180 48
2005-06-24 14:38 51°13.598 2°56.108 4.1 230 25.7 101180 49
2005-06-24 14:39 51°13.599 2°56.108 2.2 251 25.5 101180 51
2005-06-24 14:40 51°13.599 2°56.108 3.9 218 25.3 101180 52
2005-06-24 14:41 51°13.599 2°56.108 4.3 230 25.1 101180 53
2005-06-24 14:42 51°13.599 2°56.108 3.2 253 24.8 101180 53
2005-06-24 14:43 51°13.599 2°56.108 2.7 230 24.6 101180 54
2005-06-24 14:44 51°13.598 2°56.108 2.5 270 24.7 101180 54
2005-06-24 14:45 51°13.598 2°56.108 1.8 241 24.8 101180 54
2005-06-24 14:46 51°13.598 2°56.108 6 280 24.9 101180 52
2005-06-24 14:47 51°13.598 2°56.108 4.8 271 24.8 101180 51
2005-06-24 14:48 51°13.599 2°56.107 4.1 265 24.7 101180 51
2005-06-24 14:49 51°13.599 2°56.107 4.1 256 24.7 101180 52
2005-06-24 14:50 51°13.6 2°56.108 3.3 240 24.6 101180 50
2005-06-24 14:51 51°13.599 2°56.107 2.2 253 24.6 101180 49
2005-06-24 14:52 51°13.599 2°56.107 4.1 248 24.6 101180 51
2005-06-24 14:53 51°13.6 2°56.107 3.4 263 24.5 101180 49
2005-06-24 14:54 51°13.599 2°56.107 3.8 251 24.6 101180 49
2005-06-24 14:55 51°13.599 2°56.107 3.2 251 24.6 101180 47
2005-06-24 14:56 51°13.599 2°56.107 2.7 249 24.7 101180 48
2005-06-24 14:57 51°13.599 2°56.107 2.7 261 24.8 101180 49
2005-06-24 14:58 51°13.598 2°56.107 3.4 266 24.8 101180 48
2005-06-24 14:59 51°13.598 2°56.106 3.8 260 24.8 101180 50
2005-06-24 15:00 51°13.599 2°56.107 2.4 241 24.9 101180 51
2005-06-24 15:01 51°13.6 2°56.108 1.6 272 24.9 101180 51
2005-06-24 15:02 51°13.601 2°56.108 2.9 240 25 101180 50
2005-06-24 15:03 51°13.599 2°56.109 2.6 269 24.9 101180 51
2005-06-24 15:04 51°13.599 2°56.109 2.2 264 25 101190 53
2005-06-24 15:05 51°13.599 2°56.109 2.2 259 25.2 101180 54
2005-06-24 15:06 51°13.599 2°56.109 2.9 238 25.1 101190 53
2005-06-24 15:07 51°13.599 2°56.108 1.5 256 25.1 101180 53
2005-06-24 15:08 51°13.599 2°56.108 2.8 254 25.2 101190 53
2005-06-24 15:09 51°13.599 2°56.108 2.6 232 25.1 101180 53
2005-06-24 15:10 51°13.598 2°56.108 3.1 256 24.9 101180 54
2005-06-24 15:11 51°13.598 2°56.109 5 246 24.6 101180 53
2005-06-24 15:12 51°13.597 2°56.109 1.9 284 24.4 101180 55
2005-06-24 15:13 51°13.597 2°56.108 2.2 248 24.3 101180 56
2005-06-24 15:14 51°13.597 2°56.108 3.6 252 24.3 101180 55
2005-06-24 15:15 51°13.597 2°56.108 2 227 24.4 101180 52
2005-06-24 15:16 51°13.598 2°56.108 4.6 243 24.5 101180 53
2005-06-24 15:17 51°13.598 2°56.108 3.7 292 24.4 101180 54
2005-06-24 15:18 51°13.597 2°56.109 5.5 273 24.4 101180 53
2005-06-24 15:19 51°13.596 2°56.108 6.1 270 24.4 101170 53
2005-06-24 15:20 51°13.596 2°56.107 4.6 247 24.4 101170 52
2005-06-24 15:21 51°13.596 2°56.107 3.8 266 24.3 101170 51
2005-06-24 15:22 51°13.597 2°56.107 5.7 290 24.3 101170 52
2005-06-24 15:23 51°13.597 2°56.107 3.1 254 24.3 101170 53
2005-06-24 15:24 51°13.599 2°56.107 1.6 260 24.4 101170 52
2005-06-24 15:25 51°13.598 2°56.108 3.3 240 24.5 101170 52
2005-06-24 15:26 51°13.597 2°56.108 5.5 273 24.6 101170 50
2005-06-24 15:27 51°13.597 2°56.108 5 280 24.6 101170 50
2005-06-24 15:28 51°13.597 2°56.108 4 263 24.6 101160 50
2005-06-24 15:29 51°13.597 2°56.107 4.6 239 24.8 101160 48
2005-06-24 15:30 51°13.598 2°56.107 2.5 221 24.8 101160 49
2005-06-24 15:31 51°13.598 2°56.108 2.7 233 24.9 101160 49
2005-06-24 15:32 51°13.598 2°56.108 2.3 250 25 101160 49
2005-06-24 15:33 51°13.598 2°56.108 2.8 289 25.1 101160 48
2005-06-24 15:34 51°13.597 2°56.109 3 251 25.2 101160 48
2005-06-24 15:35 51°13.598 2°56.109 3.3 273 25.3 101150 46
2005-06-24 15:36 51°13.598 2°56.109 3.6 247 25.4 101150 46
2005-06-24 15:37 51°13.598 2°56.109 3.9 233 25.4 101150 46
2005-06-24 15:38 51°13.598 2°56.108 4.7 268 25.5 101150 45
2005-06-24 15:39 51°13.598 2°56.108 5.4 260 25.4 101140 45
2005-06-24 15:40 51°13.598 2°56.108 3.1 237 25.3 101140 46
2005-06-24 15:41 51°13.599 2°56.108 2.9 302 25.3 101140 46
2005-06-24 15:42 51°13.599 2°56.108 2.7 260 25.5 101140 44
2005-06-24 15:43 51°13.599 2°56.108 4.2 278 25.4 101140 45
2005-06-24 15:44 51°13.599 2°56.109 4.7 293 25.4 101140 46
2005-06-24 15:45 51°13.599 2°56.109 1.7 246 25.5 101140 45
2005-06-24 15:46 51°13.599 2°56.108 2.1 262 25.5 101140 45
2005-06-24 15:47 51°13.599 2°56.108 3.2 276 25.5 101130 46
2005-06-24 15:48 51°13.599 2°56.108 3.3 273 25.5 101130 45
2005-06-24 15:49 51°13.599 2°56.107 4.8 283 25.5 101120 46
2005-06-24 15:50 51°13.599 2°56.107 4.6 266 25.5 101120 46
2005-06-24 15:51 51°13.599 2°56.107 3.5 272 25.4 101120 45
2005-06-24 15:52 51°13.599 2°56.108 3.1 290 25.5 101120 45
2005-06-24 15:53 51°13.598 2°56.107 6.5 275 25.5 101120 45
2005-06-24 15:54 51°13.598 2°56.107 5.5 271 25.5 101120 45
2005-06-24 15:55 51°13.598 2°56.107 1.7 276 25.4 101120 45
2005-06-24 15:56 51°13.598 2°56.107 4 260 25.5 101120 45
2005-06-24 15:57 51°13.598 2°56.108 6.2 277 25.3 101120 45
2005-06-24 15:58 51°13.598 2°56.107 3.6 291 25.2 101110 46